createdAt,value
2018-04-24T00:00:36.745Z,13.80
2018-04-24T00:03:03.273Z,13.80
2018-04-24T00:05:30.471Z,13.60
2018-04-24T00:07:56.968Z,13.70
2018-04-24T00:10:23.489Z,13.70
2018-04-24T00:12:50.681Z,13.60
2018-04-24T00:15:17.261Z,13.60
2018-04-24T00:17:43.714Z,13.60
2018-04-24T00:20:10.945Z,13.60
2018-04-24T00:22:37.383Z,13.60
2018-04-24T00:25:04.637Z,13.60
2018-04-24T00:27:31.870Z,13.60
2018-04-24T00:29:58.312Z,13.50
2018-04-24T00:32:24.813Z,13.60
2018-04-24T00:34:51.267Z,13.70
2018-04-24T00:37:17.919Z,13.60
2018-04-24T00:39:44.390Z,13.70
2018-04-24T00:42:10.873Z,13.70
2018-04-24T00:44:37.387Z,13.70
2018-04-24T00:47:03.857Z,13.60
2018-04-24T00:49:30.317Z,13.60
2018-04-24T00:51:56.797Z,13.60
2018-04-24T00:54:23.265Z,13.70
2018-04-24T00:56:50.438Z,13.60
2018-04-24T00:59:16.969Z,13.60
2018-04-24T01:01:43.423Z,13.50
2018-04-24T01:04:10.045Z,13.50
2018-04-24T01:06:36.457Z,13.40
2018-04-24T01:09:03.635Z,13.30
2018-04-24T01:11:30.226Z,13.30
2018-04-24T01:13:56.748Z,13.30
2018-04-24T01:16:23.289Z,13.20
2018-04-24T01:18:49.746Z,13.20
2018-04-24T01:21:16.961Z,13.10
2018-04-24T01:23:43.592Z,13.10
2018-04-24T01:26:10.065Z,13.10
2018-04-24T01:28:37.373Z,13.00
2018-04-24T01:31:03.920Z,13.10
2018-04-24T01:33:30.353Z,13.00
2018-04-24T01:35:56.850Z,13.10
2018-04-24T01:38:23.259Z,13.00
2018-04-24T01:40:50.469Z,13.00
2018-04-24T01:43:17.002Z,13.00
2018-04-24T01:45:43.409Z,13.00
2018-04-24T01:48:09.898Z,12.90
2018-04-24T01:50:36.329Z,12.90
2018-04-24T01:53:02.993Z,12.80
2018-04-24T01:55:30.181Z,12.60
2018-04-24T01:57:56.651Z,12.50
2018-04-24T02:00:23.161Z,12.50
2018-04-24T02:02:49.670Z,12.40
2018-04-24T02:05:16.230Z,12.30
2018-04-24T02:07:42.704Z,12.30
2018-04-24T02:10:09.267Z,12.30
2018-04-24T02:12:35.740Z,12.30
2018-04-24T02:15:02.238Z,12.30
2018-04-24T02:17:28.684Z,12.40
2018-04-24T02:19:55.185Z,12.30
2018-04-24T02:22:22.380Z,12.30
2018-04-24T02:24:48.842Z,12.20
2018-04-24T02:27:15.264Z,12.30
2018-04-24T02:29:41.761Z,12.30
2018-04-24T02:32:08.322Z,12.40
2018-04-24T02:34:34.756Z,12.50
2018-04-24T02:37:01.299Z,12.50
2018-04-24T02:39:28.601Z,12.50
2018-04-24T02:41:55.065Z,12.50
2018-04-24T02:44:21.633Z,12.50
2018-04-24T02:46:48.084Z,12.50
2018-04-24T02:49:15.269Z,12.30
2018-04-24T02:51:41.822Z,12.30
2018-04-24T02:54:08.277Z,12.30
2018-04-24T02:56:34.828Z,12.20
2018-04-24T02:59:01.273Z,12.10
2018-04-24T03:01:28.481Z,12.00
2018-04-24T03:03:55.031Z,12.00
2018-04-24T03:06:21.477Z,12.00
2018-04-24T03:08:47.910Z,11.90
2018-04-24T03:11:14.409Z,11.90
2018-04-24T03:13:40.956Z,11.90
2018-04-24T03:16:07.363Z,11.90
2018-04-24T03:18:33.851Z,11.90
2018-04-24T03:21:00.290Z,11.90
2018-04-24T03:23:27.497Z,11.90
2018-04-24T03:25:53.934Z,11.90
2018-04-24T03:28:20.421Z,11.80
2018-04-24T03:30:47.592Z,11.80
2018-04-24T03:33:14.081Z,11.80
2018-04-24T03:35:40.553Z,11.80
2018-04-24T03:38:06.977Z,11.70
2018-04-24T03:40:34.194Z,11.70
2018-04-24T03:43:00.644Z,11.70
2018-04-24T03:45:27.861Z,11.60
2018-04-24T03:47:54.340Z,11.60
2018-04-24T03:50:21.595Z,11.60
2018-04-24T03:52:48.767Z,11.50
2018-04-24T03:55:15.225Z,11.50
2018-04-24T03:57:41.662Z,11.40
2018-04-24T04:00:08.117Z,11.40
2018-04-24T04:02:34.586Z,11.40
2018-04-24T04:05:01.869Z,11.20
2018-04-24T04:07:28.312Z,11.20
2018-04-24T04:09:54.785Z,11.20
2018-04-24T04:12:21.333Z,11.10
2018-04-24T04:14:48.569Z,11.00
2018-04-24T04:17:27.329Z,11.00
2018-04-24T04:20:06.221Z,11.00
2018-04-24T04:22:45.460Z,11.00
2018-04-24T04:25:12.642Z,11.00
2018-04-24T04:27:39.123Z,11.00
2018-04-24T04:30:05.698Z,11.00
2018-04-24T04:32:32.183Z,11.00
2018-04-24T04:34:58.737Z,10.90
2018-04-24T04:37:25.252Z,11.00
2018-04-24T04:39:51.754Z,11.00
2018-04-24T04:42:18.242Z,10.90
2018-04-24T04:44:44.766Z,11.00
2018-04-24T04:47:11.218Z,11.20
2018-04-24T04:49:38.460Z,11.40
2018-04-24T04:52:05.662Z,11.40
2018-04-24T04:54:32.244Z,11.40
2018-04-24T04:56:59.454Z,11.50
2018-04-24T04:59:25.978Z,11.40
2018-04-24T05:01:52.517Z,11.50
2018-04-24T05:04:18.989Z,11.60
2018-04-24T05:06:45.478Z,11.60
2018-04-24T05:09:13.047Z,11.70
2018-04-24T05:11:39.932Z,11.80
2018-04-24T05:14:06.462Z,12.00
2018-04-24T05:16:33.133Z,12.10
2018-04-24T05:19:00.397Z,12.40
2018-04-24T05:21:26.988Z,12.40
2018-04-24T05:23:53.530Z,12.40
2018-04-24T05:26:20.809Z,12.30
2018-04-24T05:28:48.062Z,12.50
2018-04-24T05:31:15.247Z,12.80
2018-04-24T05:33:41.809Z,12.70
2018-04-24T05:36:08.265Z,13.40
2018-04-24T05:38:34.737Z,14.10
2018-04-24T05:41:01.214Z,14.90
2018-04-24T05:43:27.781Z,15.00
2018-04-24T05:45:56.146Z,14.80
2018-04-24T05:48:22.644Z,14.80
2018-04-24T05:50:49.129Z,14.60
2018-04-24T05:53:16.362Z,14.90
2018-04-24T05:55:42.798Z,14.90
2018-04-24T05:58:09.296Z,15.40
2018-04-24T06:00:35.758Z,15.50
2018-04-24T06:03:02.238Z,15.30
2018-04-24T06:05:28.703Z,15.40
2018-04-24T06:07:55.144Z,15.60
2018-04-24T06:10:21.698Z,16.20
2018-04-24T06:12:48.121Z,16.60
2018-04-24T06:15:14.609Z,17.10
2018-04-24T06:17:41.068Z,17.00
2018-04-24T06:20:07.506Z,16.60
2018-04-24T06:22:34.013Z,16.20
2018-04-24T06:25:00.509Z,16.00
2018-04-24T06:27:27.654Z,18.80
2018-04-24T06:29:54.079Z,18.70
2018-04-24T06:32:20.585Z,19.10
2018-04-24T06:34:47.050Z,19.70
2018-04-24T06:37:13.553Z,20.10
2018-04-24T06:39:40.137Z,20.00
2018-04-24T06:42:07.365Z,19.80
2018-04-24T06:44:33.881Z,19.80
2018-04-24T06:47:00.332Z,20.30
2018-04-24T06:49:26.849Z,21.10
2018-04-24T06:51:53.359Z,21.20
2018-04-24T06:54:19.800Z,21.70
2018-04-24T06:56:46.245Z,22.00
2018-04-24T06:59:12.695Z,21.20
2018-04-24T07:01:39.145Z,20.30
2018-04-24T07:04:06.039Z,19.50
2018-04-24T07:06:32.514Z,18.90
2018-04-24T07:08:58.958Z,18.50
2018-04-24T07:11:25.454Z,18.80
2018-04-24T07:13:51.908Z,19.50
2018-04-24T07:16:18.369Z,19.90
2018-04-24T07:18:45.602Z,21.70
2018-04-24T07:21:12.061Z,21.70
2018-04-24T07:23:39.232Z,23.10
2018-04-24T07:26:05.709Z,23.10
2018-04-24T07:28:32.186Z,23.70
2018-04-24T07:30:58.615Z,23.60
2018-04-24T07:33:25.845Z,23.70
2018-04-24T07:35:52.349Z,23.70
2018-04-24T07:38:18.808Z,23.80
2018-04-24T07:40:45.237Z,23.30
2018-04-24T07:43:11.736Z,22.10
2018-04-24T07:45:38.188Z,22.10
2018-04-24T07:48:04.604Z,21.90
2018-04-24T07:50:31.065Z,22.20
2018-04-24T07:52:57.493Z,22.70
2018-04-24T07:55:23.978Z,22.10
2018-04-24T07:57:50.386Z,22.70
2018-04-24T08:00:17.585Z,22.90
2018-04-24T08:02:44.001Z,22.90
2018-04-24T08:05:10.493Z,22.40
2018-04-24T08:07:37.709Z,22.60
2018-04-24T08:10:04.185Z,22.60
2018-04-24T08:12:31.376Z,22.00
2018-04-24T08:14:57.916Z,21.90
2018-04-24T08:17:24.341Z,22.20
2018-04-24T08:19:50.886Z,22.00
2018-04-24T08:22:17.326Z,21.90
2018-04-24T08:24:43.790Z,21.50
2018-04-24T08:27:10.277Z,20.50
2018-04-24T08:29:36.756Z,21.00
2018-04-24T08:32:03.245Z,22.00
2018-04-24T08:34:29.722Z,22.40
2018-04-24T08:36:56.203Z,21.70
2018-04-24T08:39:22.621Z,22.00
2018-04-24T08:41:49.858Z,22.20
2018-04-24T08:44:16.310Z,22.20
2018-04-24T08:46:43.519Z,22.60
2018-04-24T08:49:09.986Z,22.50
2018-04-24T08:51:37.230Z,20.80
2018-04-24T08:54:04.540Z,20.50
2018-04-24T08:56:31.077Z,20.40
2018-04-24T08:58:57.436Z,20.20
2018-04-24T09:01:23.873Z,20.30
2018-04-24T09:03:50.377Z,19.60
2018-04-24T09:06:16.830Z,19.50
2018-04-24T09:08:43.314Z,20.00
2018-04-24T09:11:09.778Z,21.00
2018-04-24T09:13:36.283Z,21.30
2018-04-24T09:16:02.693Z,21.90
2018-04-24T09:18:29.847Z,20.30
2018-04-24T09:20:57.077Z,20.60
2018-04-24T09:23:23.734Z,20.60
2018-04-24T09:25:50.986Z,21.60
2018-04-24T09:28:18.124Z,21.80
2018-04-24T09:30:45.333Z,22.30
2018-04-24T09:33:11.765Z,22.30
2018-04-24T09:35:38.225Z,22.40
2018-04-24T09:38:04.673Z,22.10
2018-04-24T09:40:31.873Z,22.40
2018-04-24T09:42:58.293Z,22.40
2018-04-24T09:45:24.760Z,21.60
2018-04-24T09:47:51.238Z,20.90
2018-04-24T09:50:18.546Z,20.00
2018-04-24T09:52:44.989Z,20.00
2018-04-24T09:55:12.272Z,20.60
2018-04-24T09:57:39.505Z,21.40
2018-04-24T10:00:06.586Z,21.40
2018-04-24T10:02:33.081Z,21.50
2018-04-24T10:04:59.689Z,21.60
2018-04-24T10:07:26.165Z,21.20
2018-04-24T10:09:53.370Z,20.70
2018-04-24T10:12:19.850Z,20.60
2018-04-24T10:14:47.183Z,21.10
2018-04-24T10:17:13.683Z,21.10
2018-04-24T10:19:40.210Z,21.80
2018-04-24T10:22:06.708Z,21.90
2018-04-24T10:24:33.282Z,21.70
2018-04-24T10:26:59.721Z,21.30
2018-04-24T10:29:26.190Z,21.10
2018-04-24T10:31:52.644Z,21.50
2018-04-24T10:34:19.189Z,21.30
2018-04-24T10:36:46.384Z,22.00
2018-04-24T10:39:12.904Z,22.00
2018-04-24T10:41:39.400Z,21.50
2018-04-24T10:44:06.765Z,21.40
2018-04-24T10:46:33.993Z,21.60
2018-04-24T10:49:00.546Z,21.60
2018-04-24T10:51:27.837Z,21.80
2018-04-24T10:53:54.285Z,21.70
2018-04-24T10:56:20.725Z,22.10
2018-04-24T10:58:47.278Z,22.60
2018-04-24T11:01:13.769Z,22.60
2018-04-24T11:03:40.330Z,22.20
2018-04-24T11:06:06.840Z,21.90
2018-04-24T11:08:33.319Z,22.20
2018-04-24T11:11:01.861Z,22.50
2018-04-24T11:13:28.333Z,22.00
2018-04-24T11:15:54.859Z,22.10
2018-04-24T11:18:21.359Z,22.20
2018-04-24T11:20:47.829Z,21.50
2018-04-24T11:23:14.263Z,21.90
2018-04-24T11:25:40.769Z,22.40
2018-04-24T11:28:07.223Z,23.10
2018-04-24T11:30:33.709Z,23.40
2018-04-24T11:33:00.960Z,23.40
2018-04-24T11:35:28.167Z,23.70
2018-04-24T11:37:54.734Z,23.70
2018-04-24T11:40:21.943Z,24.10
2018-04-24T11:42:48.409Z,24.10
2018-04-24T11:45:14.871Z,24.70
2018-04-24T11:47:42.146Z,24.90
2018-04-24T11:50:08.591Z,24.90
2018-04-24T11:52:35.062Z,24.30
2018-04-24T11:55:01.535Z,23.70
2018-04-24T11:57:28.053Z,24.00
2018-04-24T11:59:55.315Z,24.50
2018-04-24T12:02:21.795Z,24.50
2018-04-24T12:04:48.267Z,24.50
2018-04-24T12:07:15.942Z,25.10
2018-04-24T12:09:42.439Z,25.00
2018-04-24T12:12:09.147Z,25.00
2018-04-24T12:14:35.583Z,25.60
2018-04-24T12:17:02.029Z,25.90
2018-04-24T12:19:28.498Z,25.90
2018-04-24T12:21:55.706Z,26.20
2018-04-24T12:24:22.359Z,26.20
2018-04-24T12:26:48.790Z,26.40
2018-04-24T12:29:15.351Z,26.60
2018-04-24T12:31:42.576Z,25.90
2018-04-24T12:34:09.107Z,25.90
2018-04-24T12:36:35.606Z,26.10
2018-04-24T12:39:02.081Z,25.80
2018-04-24T12:41:28.578Z,25.40
2018-04-24T12:43:55.093Z,24.40
2018-04-24T12:46:21.620Z,25.10
2018-04-24T12:48:49.003Z,25.70
2018-04-24T12:51:15.763Z,25.70
2018-04-24T12:53:42.246Z,26.40
2018-04-24T12:56:09.481Z,26.50
2018-04-24T12:58:36.062Z,26.50
2018-04-24T13:01:02.530Z,26.60
2018-04-24T13:03:29.022Z,26.20
2018-04-24T13:05:55.575Z,26.20
2018-04-24T13:08:22.069Z,26.30
2018-04-24T13:10:51.042Z,25.50
2018-04-24T13:13:17.481Z,25.50
2018-04-24T13:15:43.930Z,25.00
2018-04-24T13:18:11.172Z,24.60
2018-04-24T13:20:38.365Z,24.30
2018-04-24T13:23:04.842Z,24.20
2018-04-24T13:25:31.308Z,24.40
2018-04-24T13:27:58.518Z,24.80
2018-04-24T13:30:24.951Z,24.80
2018-04-24T13:32:51.669Z,25.10
2018-04-24T13:35:18.162Z,25.30
2018-04-24T13:37:45.362Z,24.80
2018-04-24T13:40:11.805Z,24.70
2018-04-24T13:42:38.457Z,24.80
2018-04-24T13:45:04.925Z,25.10
2018-04-24T13:47:31.421Z,24.90
2018-04-24T13:49:57.840Z,24.60
2018-04-24T13:52:24.394Z,24.40
2018-04-24T13:54:55.592Z,24.20
2018-04-24T13:57:22.007Z,24.10
2018-04-24T13:59:48.513Z,24.10
2018-04-24T14:02:15.858Z,24.30
2018-04-24T14:04:42.412Z,24.70
2018-04-24T14:07:09.604Z,25.10
2018-04-24T14:09:36.094Z,25.10
2018-04-24T14:12:03.491Z,25.50
2018-04-24T14:14:29.951Z,25.50
2018-04-24T14:16:56.587Z,26.60
2018-04-24T14:19:23.133Z,27.10
2018-04-24T14:21:52.113Z,27.50
2018-04-24T14:24:19.537Z,26.70
2018-04-24T14:26:46.050Z,26.60
2018-04-24T14:29:13.397Z,25.10
2018-04-24T14:31:40.854Z,24.90
2018-04-24T14:34:08.265Z,25.90
2018-04-24T14:36:35.011Z,25.90
2018-04-24T14:39:01.524Z,26.30
2018-04-24T14:41:27.974Z,26.70
2018-04-24T14:43:54.490Z,26.90
2018-04-24T14:46:20.973Z,26.40
2018-04-24T14:48:47.563Z,25.90
2018-04-24T14:51:14.061Z,25.10
2018-04-24T14:53:41.256Z,26.90
2018-04-24T14:56:07.730Z,26.90
2018-04-24T14:58:34.215Z,28.40
2018-04-24T15:01:00.707Z,28.70
2018-04-24T15:03:27.900Z,28.10
2018-04-24T15:05:54.477Z,28.10
2018-04-24T15:08:20.938Z,28.50
2018-04-24T15:10:48.142Z,29.20
2018-04-24T15:13:14.770Z,29.20
2018-04-24T15:15:41.209Z,29.30
2018-04-24T15:18:07.696Z,28.50
2018-04-24T15:20:34.925Z,27.90
2018-04-24T15:23:01.382Z,27.90
2018-04-24T15:25:28.074Z,27.90
2018-04-24T15:27:54.529Z,27.40
2018-04-24T15:30:21.068Z,27.90
2018-04-24T15:32:47.973Z,28.60
2018-04-24T15:35:14.420Z,28.40
2018-04-24T15:37:41.671Z,28.20
2018-04-24T15:40:08.122Z,28.10
2018-04-24T15:42:34.571Z,27.80
2018-04-24T15:45:02.372Z,29.10
2018-04-24T15:47:28.881Z,29.10
2018-04-24T15:49:56.262Z,28.30
2018-04-24T15:52:22.712Z,28.20
2018-04-24T15:54:49.550Z,28.10
2018-04-24T15:57:16.705Z,27.80
2018-04-24T15:59:43.202Z,27.80
2018-04-24T16:02:09.710Z,27.80
2018-04-24T16:04:36.953Z,26.90
2018-04-24T16:07:03.455Z,26.80
2018-04-24T16:09:29.976Z,26.50
2018-04-24T16:11:56.511Z,26.00
2018-04-24T16:14:22.951Z,26.00
2018-04-24T16:16:49.609Z,25.30
2018-04-24T16:19:16.125Z,25.00
2018-04-24T16:21:42.872Z,24.40
2018-04-24T16:24:09.444Z,23.60
2018-04-24T16:26:35.901Z,22.80
2018-04-24T16:29:03.105Z,22.20
2018-04-24T16:31:29.550Z,22.10
2018-04-24T16:33:56.108Z,22.00
2018-04-24T16:36:22.543Z,21.90
2018-04-24T16:38:49.762Z,21.70
2018-04-24T16:41:16.237Z,21.60
2018-04-24T16:43:43.453Z,21.40
2018-04-24T16:46:09.950Z,21.40
2018-04-24T16:48:36.471Z,21.30
2018-04-24T16:51:02.935Z,21.20
2018-04-24T16:53:29.421Z,21.20
2018-04-24T16:55:56.761Z,21.00
2018-04-24T16:58:23.807Z,21.00
2018-04-24T17:00:50.424Z,21.00
2018-04-24T17:03:16.871Z,21.00
2018-04-24T17:05:43.465Z,21.00
2018-04-24T17:08:09.915Z,21.00
2018-04-24T17:10:36.639Z,21.00
2018-04-24T17:13:03.127Z,21.00
2018-04-24T17:15:30.349Z,20.80
2018-04-24T17:17:56.841Z,20.80
2018-04-24T17:20:23.381Z,20.60
2018-04-24T17:22:49.848Z,20.50
2018-04-24T17:25:17.346Z,20.40
2018-04-24T17:27:44.572Z,20.30
2018-04-24T17:30:11.026Z,20.30
2018-04-24T17:32:38.245Z,20.10
2018-04-24T17:35:04.897Z,20.00
2018-04-24T17:37:31.355Z,20.00
2018-04-24T17:39:58.659Z,19.90
2018-04-24T17:42:25.184Z,19.90
2018-04-24T17:44:51.719Z,19.80
2018-04-24T17:47:18.262Z,19.70
2018-04-24T17:49:44.753Z,19.70
2018-04-24T17:52:13.766Z,19.40
2018-04-24T17:54:41.092Z,19.40
2018-04-24T17:57:08.836Z,19.40
2018-04-24T17:59:35.278Z,19.40
2018-04-24T18:02:01.704Z,19.30
2018-04-24T18:04:28.397Z,19.10
2018-04-24T18:06:54.842Z,18.80
2018-04-24T18:09:21.356Z,18.60
2018-04-24T18:11:48.047Z,18.60
2018-04-24T18:14:14.535Z,18.40
2018-04-24T18:16:41.118Z,18.30
2018-04-24T18:19:07.610Z,18.20
2018-04-24T18:21:34.199Z,18.10
2018-04-24T18:24:00.715Z,17.90
2018-04-24T18:26:27.447Z,17.70
2018-04-24T18:28:53.928Z,17.60
2018-04-24T18:31:20.417Z,17.40
2018-04-24T18:33:46.943Z,17.30
2018-04-24T18:36:13.401Z,17.10
2018-04-24T18:38:40.295Z,17.00
2018-04-24T18:41:06.866Z,17.00
2018-04-24T18:43:33.429Z,17.00
2018-04-24T18:46:00.716Z,16.70
2018-04-24T18:48:27.210Z,16.70
2018-04-24T18:50:53.697Z,16.60
2018-04-24T18:53:20.152Z,16.50
2018-04-24T18:55:46.735Z,16.30
2018-04-24T18:58:14.067Z,16.10
2018-04-24T19:00:40.631Z,16.10
2018-04-24T19:03:07.197Z,16.00
2018-04-24T19:05:33.878Z,15.90
2018-04-24T19:08:00.367Z,15.90
2018-04-24T19:10:27.030Z,15.70
2018-04-24T19:12:53.538Z,15.60
2018-04-24T19:15:20.096Z,15.40
2018-04-24T19:17:46.608Z,15.30
2018-04-24T19:20:13.167Z,15.20
2018-04-24T19:22:39.705Z,15.10
2018-04-24T19:25:12.202Z,15.00
2018-04-24T19:27:39.467Z,14.80
2018-04-24T19:30:06.701Z,14.80
2018-04-24T19:32:33.508Z,14.80
2018-04-24T19:35:00.016Z,14.70
2018-04-24T19:37:26.577Z,14.60
2018-04-24T19:39:59.135Z,14.60
2018-04-24T19:42:25.685Z,14.40
2018-04-24T19:44:52.199Z,14.30
2018-04-24T19:47:18.713Z,14.30
2018-04-24T19:49:51.941Z,14.20
2018-04-24T19:52:18.505Z,14.20
2018-04-24T19:54:51.742Z,14.10
2018-04-24T19:57:19.010Z,14.00
2018-04-24T19:59:45.575Z,14.00
2018-04-24T20:02:12.199Z,14.00
2018-04-24T20:04:38.733Z,14.00
2018-04-24T20:07:05.200Z,14.00
2018-04-24T20:09:31.929Z,13.90
2018-04-24T20:11:58.454Z,13.80
2018-04-24T20:14:24.977Z,13.70
2018-04-24T20:16:51.492Z,13.60
2018-04-24T20:19:18.097Z,13.40
2018-04-24T20:21:45.344Z,13.40
2018-04-24T20:24:12.535Z,13.20
2018-04-24T20:26:39.034Z,13.10
2018-04-24T20:29:06.237Z,13.00
2018-04-24T20:31:32.929Z,13.00
2018-04-24T20:34:00.255Z,12.70
2018-04-24T20:36:26.816Z,12.70
2018-04-24T20:38:54.058Z,12.50
2018-04-24T20:41:20.828Z,12.50
2018-04-24T20:43:47.299Z,12.50
2018-04-24T20:46:13.908Z,12.40
2018-04-24T20:48:40.430Z,12.40
2018-04-24T20:51:06.986Z,12.50
2018-04-24T20:53:33.573Z,12.40
2018-04-24T20:55:59.946Z,12.30
2018-04-24T20:58:26.779Z,12.40
2018-04-24T21:00:53.385Z,12.40
2018-04-24T21:03:21.005Z,12.40
2018-04-24T21:05:47.555Z,12.30
2018-04-24T21:08:17.008Z,12.30
2018-04-24T21:10:43.581Z,12.20
2018-04-24T21:13:10.045Z,12.10
2018-04-24T21:15:36.541Z,12.00
2018-04-24T21:18:02.981Z,12.10
2018-04-24T21:20:29.469Z,11.90
2018-04-24T21:22:56.677Z,11.70
2018-04-24T21:25:23.287Z,11.70
2018-04-24T21:27:49.759Z,11.60
2018-04-24T21:30:16.269Z,11.60
2018-04-24T21:32:42.720Z,11.60
2018-04-24T21:35:09.263Z,11.60
2018-04-24T21:37:35.838Z,11.50
2018-04-24T21:40:02.412Z,11.50
2018-04-24T21:42:28.941Z,11.40
2018-04-24T21:44:55.502Z,11.40
2018-04-24T21:47:22.198Z,11.40
2018-04-24T21:49:48.683Z,11.40
2018-04-24T21:52:15.323Z,11.30
2018-04-24T21:54:41.779Z,11.30
2018-04-24T21:57:09.027Z,11.20
2018-04-24T21:59:35.569Z,11.10
2018-04-24T22:02:02.778Z,11.10
2018-04-24T22:04:29.258Z,11.10
2018-04-24T22:06:56.533Z,11.10
2018-04-24T22:09:23.078Z,11.10
2018-04-24T22:11:49.571Z,11.00
2018-04-24T22:14:16.792Z,11.00
2018-04-24T22:16:43.503Z,11.00
2018-04-24T22:19:10.165Z,11.00
2018-04-24T22:21:36.597Z,10.90
2018-04-24T22:24:03.093Z,10.80
2018-04-24T22:26:29.566Z,10.90
2018-04-24T22:28:56.003Z,10.80
2018-04-24T22:31:22.494Z,10.80
2018-04-24T22:33:48.971Z,10.70
2018-04-24T22:36:16.245Z,10.60
2018-04-24T22:38:44.093Z,10.50
2018-04-24T22:41:10.539Z,10.40
2018-04-24T22:43:37.058Z,10.40
2018-04-24T22:46:03.564Z,10.40
2018-04-24T22:48:37.047Z,10.40
2018-04-24T22:51:03.489Z,10.30
2018-04-24T22:53:37.008Z,10.30
2018-04-24T22:56:03.537Z,10.30
2018-04-24T22:58:30.018Z,10.20
2018-04-24T23:00:56.450Z,10.30
2018-04-24T23:03:23.871Z,10.20
2018-04-24T23:05:50.371Z,10.20
2018-04-24T23:08:16.825Z,10.10
2018-04-24T23:10:55.398Z,10.00
2018-04-24T23:13:35.772Z,9.90
2018-04-24T23:16:15.207Z,9.80
2018-04-24T23:18:54.716Z,9.90
2018-04-24T23:21:20.846Z,9.90
2018-04-24T23:23:47.313Z,9.90
2018-04-24T23:26:13.760Z,9.90
2018-04-24T23:28:40.234Z,9.90
2018-04-24T23:31:06.665Z,9.80
2018-04-24T23:33:33.181Z,9.70
2018-04-24T23:35:59.584Z,9.60
2018-04-24T23:38:26.042Z,9.60
2018-04-24T23:40:52.457Z,9.50
2018-04-24T23:43:18.937Z,9.50
2018-04-24T23:45:45.400Z,9.40
2018-04-24T23:48:12.608Z,9.50
2018-04-24T23:50:39.094Z,9.50
2018-04-24T23:53:06.273Z,9.40
2018-04-24T23:55:32.794Z,9.30
2018-04-24T23:57:59.267Z,9.30
